sensor_id;sensor_type;location;lat;lon;timestamp;P1;durP1;ratioP1;P2;durP2;ratioP2
68976;SDS011;56029;52.568;13.588;2023-11-19T00:00:20;12.85;;;6.13;;
68976;SDS011;56029;52.568;13.588;2023-11-19T00:03:06;13.00;;;6.17;;
68976;SDS011;56029;52.568;13.588;2023-11-19T00:05:31;12.55;;;5.93;;
68976;SDS011;56029;52.568;13.588;2023-11-19T00:07:57;11.33;;;6.03;;
68976;SDS011;56029;52.568;13.588;2023-11-19T00:10:22;12.43;;;6.17;;
68976;SDS011;56029;52.568;13.588;2023-11-19T00:12:48;11.43;;;5.70;;
68976;SDS011;56029;52.568;13.588;2023-11-19T00:15:17;13.07;;;6.83;;
68976;SDS011;56029;52.568;13.588;2023-11-19T00:17:47;13.20;;;5.80;;
68976;SDS011;56029;52.568;13.588;2023-11-19T00:22:39;12.60;;;6.22;;
68976;SDS011;56029;52.568;13.588;2023-11-19T00:25:05;12.88;;;5.90;;
68976;SDS011;56029;52.568;13.588;2023-11-19T00:27:31;12.40;;;5.97;;
68976;SDS011;56029;52.568;13.588;2023-11-19T00:29:57;12.80;;;6.60;;
68976;SDS011;56029;52.568;13.588;2023-11-19T00:32:22;11.93;;;5.90;;
68976;SDS011;56029;52.568;13.588;2023-11-19T00:34:48;12.40;;;6.10;;
68976;SDS011;56029;52.568;13.588;2023-11-19T00:37:14;12.83;;;6.30;;
68976;SDS011;56029;52.568;13.588;2023-11-19T00:39:40;11.50;;;5.85;;
68976;SDS011;56029;52.568;13.588;2023-11-19T00:42:09;11.98;;;5.95;;
68976;SDS011;56029;52.568;13.588;2023-11-19T00:44:35;12.23;;;6.32;;
68976;SDS011;56029;52.568;13.588;2023-11-19T00:47:01;11.63;;;5.83;;
68976;SDS011;56029;52.568;13.588;2023-11-19T00:49:26;12.77;;;6.07;;
68976;SDS011;56029;52.568;13.588;2023-11-19T00:51:52;13.33;;;6.27;;
68976;SDS011;56029;52.568;13.588;2023-11-19T00:54:17;11.67;;;5.80;;
68976;SDS011;56029;52.568;13.588;2023-11-19T00:56:43;12.93;;;6.25;;
68976;SDS011;56029;52.568;13.588;2023-11-19T00:59:08;12.00;;;5.77;;
68976;SDS011;56029;52.568;13.588;2023-11-19T01:01:34;11.13;;;5.60;;
68976;SDS011;56029;52.568;13.588;2023-11-19T01:03:59;11.98;;;6.10;;
68976;SDS011;56029;52.568;13.588;2023-11-19T01:06:31;12.33;;;6.13;;
68976;SDS011;56029;52.568;13.588;2023-11-19T01:08:58;11.60;;;6.00;;
68976;SDS011;56029;52.568;13.588;2023-11-19T01:11:23;12.73;;;6.10;;
68976;SDS011;56029;52.568;13.588;2023-11-19T01:13:49;11.43;;;5.95;;
68976;SDS011;56029;52.568;13.588;2023-11-19T01:16:15;11.10;;;5.70;;
68976;SDS011;56029;52.568;13.588;2023-11-19T01:18:42;13.68;;;5.97;;
68976;SDS011;56029;52.568;13.588;2023-11-19T01:21:07;12.53;;;5.87;;
68976;SDS011;56029;52.568;13.588;2023-11-19T01:23:33;11.53;;;5.90;;
68976;SDS011;56029;52.568;13.588;2023-11-19T01:25:58;11.83;;;6.17;;
68976;SDS011;56029;52.568;13.588;2023-11-19T01:28:24;12.30;;;5.82;;
68976;SDS011;56029;52.568;13.588;2023-11-19T01:30:52;11.40;;;6.10;;
68976;SDS011;56029;52.568;13.588;2023-11-19T01:33:18;11.82;;;5.90;;
68976;SDS011;56029;52.568;13.588;2023-11-19T01:35:43;12.23;;;5.70;;
68976;SDS011;56029;52.568;13.588;2023-11-19T01:38:09;11.52;;;6.00;;
68976;SDS011;56029;52.568;13.588;2023-11-19T01:40:34;11.47;;;5.60;;
68976;SDS011;56029;52.568;13.588;2023-11-19T01:43:00;11.30;;;5.70;;
68976;SDS011;56029;52.568;13.588;2023-11-19T01:45:27;11.43;;;5.50;;
68976;SDS011;56029;52.568;13.588;2023-11-19T01:47:53;12.43;;;5.33;;
68976;SDS011;56029;52.568;13.588;2023-11-19T01:50:19;11.40;;;5.75;;
68976;SDS011;56029;52.568;13.588;2023-11-19T01:52:45;11.60;;;5.50;;
68976;SDS011;56029;52.568;13.588;2023-11-19T01:55:11;10.67;;;5.47;;
68976;SDS011;56029;52.568;13.588;2023-11-19T01:57:37;11.85;;;5.53;;
68976;SDS011;56029;52.568;13.588;2023-11-19T02:00:03;10.55;;;5.13;;
68976;SDS011;56029;52.568;13.588;2023-11-19T02:02:29;11.33;;;5.40;;
68976;SDS011;56029;52.568;13.588;2023-11-19T02:04:55;10.00;;;5.28;;
68976;SDS011;56029;52.568;13.588;2023-11-19T02:07:21;12.00;;;5.70;;
68976;SDS011;56029;52.568;13.588;2023-11-19T02:09:48;10.73;;;5.27;;
68976;SDS011;56029;52.568;13.588;2023-11-19T02:12:14;11.02;;;5.30;;
68976;SDS011;56029;52.568;13.588;2023-11-19T02:14:39;11.63;;;5.57;;
68976;SDS011;56029;52.568;13.588;2023-11-19T02:17:05;11.30;;;5.60;;
68976;SDS011;56029;52.568;13.588;2023-11-19T02:19:30;11.10;;;5.33;;
68976;SDS011;56029;52.568;13.588;2023-11-19T02:21:56;12.80;;;5.53;;
68976;SDS011;56029;52.568;13.588;2023-11-19T02:24:21;11.73;;;5.90;;
68976;SDS011;56029;52.568;13.588;2023-11-19T02:26:52;11.15;;;5.65;;
68976;SDS011;56029;52.568;13.588;2023-11-19T02:29:27;12.40;;;5.40;;
68976;SDS011;56029;52.568;13.588;2023-11-19T02:31:52;10.73;;;5.43;;
68976;SDS011;56029;52.568;13.588;2023-11-19T02:34:18;12.90;;;5.67;;
68976;SDS011;56029;52.568;13.588;2023-11-19T02:36:43;11.40;;;5.60;;
68976;SDS011;56029;52.568;13.588;2023-11-19T02:39:09;11.07;;;5.70;;
68976;SDS011;56029;52.568;13.588;2023-11-19T02:41:34;10.30;;;5.40;;
68976;SDS011;56029;52.568;13.588;2023-11-19T02:44:00;10.60;;;5.22;;
68976;SDS011;56029;52.568;13.588;2023-11-19T02:46:25;11.17;;;5.40;;
68976;SDS011;56029;52.568;13.588;2023-11-19T02:48:51;12.27;;;6.20;;
68976;SDS011;56029;52.568;13.588;2023-11-19T02:51:16;11.45;;;5.60;;
68976;SDS011;56029;52.568;13.588;2023-11-19T02:53:42;12.53;;;5.73;;
68976;SDS011;56029;52.568;13.588;2023-11-19T02:56:07;12.00;;;5.37;;
68976;SDS011;56029;52.568;13.588;2023-11-19T02:58:33;11.77;;;5.65;;
68976;SDS011;56029;52.568;13.588;2023-11-19T03:00:58;10.63;;;5.80;;
68976;SDS011;56029;52.568;13.588;2023-11-19T03:03:24;11.97;;;5.80;;
68976;SDS011;56029;52.568;13.588;2023-11-19T03:05:50;10.38;;;5.35;;
68976;SDS011;56029;52.568;13.588;2023-11-19T03:08:16;12.13;;;5.90;;
68976;SDS011;56029;52.568;13.588;2023-11-19T03:10:41;11.93;;;5.53;;
68976;SDS011;56029;52.568;13.588;2023-11-19T03:13:10;9.87;;;5.20;;
68976;SDS011;56029;52.568;13.588;2023-11-19T03:15:36;10.02;;;5.20;;
68976;SDS011;56029;52.568;13.588;2023-11-19T03:18:02;10.87;;;5.37;;
68976;SDS011;56029;52.568;13.588;2023-11-19T03:20:28;10.67;;;5.37;;
68976;SDS011;56029;52.568;13.588;2023-11-19T03:22:53;11.57;;;5.20;;
68976;SDS011;56029;52.568;13.588;2023-11-19T03:25:19;11.67;;;5.13;;
68976;SDS011;56029;52.568;13.588;2023-11-19T03:27:44;9.93;;;4.97;;
68976;SDS011;56029;52.568;13.588;2023-11-19T03:30:10;10.35;;;5.00;;
68976;SDS011;56029;52.568;13.588;2023-11-19T03:32:35;11.03;;;4.93;;
68976;SDS011;56029;52.568;13.588;2023-11-19T03:35:01;9.80;;;5.10;;
68976;SDS011;56029;52.568;13.588;2023-11-19T03:37:27;10.13;;;5.15;;
68976;SDS011;56029;52.568;13.588;2023-11-19T03:39:59;11.43;;;5.30;;
68976;SDS011;56029;52.568;13.588;2023-11-19T03:42:25;10.60;;;5.10;;
68976;SDS011;56029;52.568;13.588;2023-11-19T03:44:53;9.50;;;4.73;;
68976;SDS011;56029;52.568;13.588;2023-11-19T03:47:19;9.82;;;4.85;;
68976;SDS011;56029;52.568;13.588;2023-11-19T03:49:50;9.77;;;5.00;;
68976;SDS011;56029;52.568;13.588;2023-11-19T03:52:17;9.63;;;4.70;;
68976;SDS011;56029;52.568;13.588;2023-11-19T03:54:44;10.98;;;5.45;;
68976;SDS011;56029;52.568;13.588;2023-11-19T03:57:09;10.32;;;5.00;;
68976;SDS011;56029;52.568;13.588;2023-11-19T03:59:35;10.03;;;5.00;;
68976;SDS011;56029;52.568;13.588;2023-11-19T04:02:00;10.33;;;4.83;;
68976;SDS011;56029;52.568;13.588;2023-11-19T04:04:26;10.23;;;5.07;;
68976;SDS011;56029;52.568;13.588;2023-11-19T04:06:52;9.87;;;4.87;;
68976;SDS011;56029;52.568;13.588;2023-11-19T04:09:17;10.52;;;5.00;;
68976;SDS011;56029;52.568;13.588;2023-11-19T04:11:43;9.87;;;5.10;;
68976;SDS011;56029;52.568;13.588;2023-11-19T04:14:09;12.88;;;5.60;;
68976;SDS011;56029;52.568;13.588;2023-11-19T04:16:34;11.00;;;5.40;;
68976;SDS011;56029;52.568;13.588;2023-11-19T04:19:00;11.97;;;5.30;;
68976;SDS011;56029;52.568;13.588;2023-11-19T04:21:25;11.10;;;5.83;;
68976;SDS011;56029;52.568;13.588;2023-11-19T04:23:51;10.93;;;5.70;;
68976;SDS011;56029;52.568;13.588;2023-11-19T04:26:16;12.57;;;5.43;;
68976;SDS011;56029;52.568;13.588;2023-11-19T04:28:42;11.20;;;6.07;;
68976;SDS011;56029;52.568;13.588;2023-11-19T04:31:07;11.50;;;5.80;;
68976;SDS011;56029;52.568;13.588;2023-11-19T04:33:33;11.33;;;5.63;;
68976;SDS011;56029;52.568;13.588;2023-11-19T04:35:58;12.40;;;5.90;;
68976;SDS011;56029;52.568;13.588;2023-11-19T04:38:24;11.15;;;5.45;;
68976;SDS011;56029;52.568;13.588;2023-11-19T04:40:49;11.77;;;5.73;;
68976;SDS011;56029;52.568;13.588;2023-11-19T04:43:15;12.67;;;5.70;;
68976;SDS011;56029;52.568;13.588;2023-11-19T04:45:40;12.05;;;5.65;;
68976;SDS011;56029;52.568;13.588;2023-11-19T04:48:06;12.90;;;6.10;;
68976;SDS011;56029;52.568;13.588;2023-11-19T04:50:31;11.63;;;5.80;;
68976;SDS011;56029;52.568;13.588;2023-11-19T04:52:57;12.43;;;6.20;;
68976;SDS011;56029;52.568;13.588;2023-11-19T04:55:22;12.50;;;6.10;;
68976;SDS011;56029;52.568;13.588;2023-11-19T04:57:48;11.17;;;5.20;;
68976;SDS011;56029;52.568;13.588;2023-11-19T05:00:13;11.70;;;6.28;;
68976;SDS011;56029;52.568;13.588;2023-11-19T05:02:39;12.77;;;5.93;;
68976;SDS011;56029;52.568;13.588;2023-11-19T05:05:05;12.90;;;6.05;;
68976;SDS011;56029;52.568;13.588;2023-11-19T05:07:30;11.90;;;6.03;;
68976;SDS011;56029;52.568;13.588;2023-11-19T05:09:56;12.13;;;6.30;;
68976;SDS011;56029;52.568;13.588;2023-11-19T05:12:21;13.98;;;5.63;;
68976;SDS011;56029;52.568;13.588;2023-11-19T05:14:47;12.43;;;5.90;;
68976;SDS011;56029;52.568;13.588;2023-11-19T05:17:13;13.55;;;6.30;;
68976;SDS011;56029;52.568;13.588;2023-11-19T05:19:38;13.47;;;6.23;;
68976;SDS011;56029;52.568;13.588;2023-11-19T05:22:04;13.60;;;6.63;;
68976;SDS011;56029;52.568;13.588;2023-11-19T05:24:31;12.93;;;6.50;;
68976;SDS011;56029;52.568;13.588;2023-11-19T05:26:57;14.37;;;6.53;;
68976;SDS011;56029;52.568;13.588;2023-11-19T05:29:22;14.10;;;6.97;;
68976;SDS011;56029;52.568;13.588;2023-11-19T05:31:48;15.50;;;6.97;;
68976;SDS011;56029;52.568;13.588;2023-11-19T05:34:13;13.33;;;6.40;;
68976;SDS011;56029;52.568;13.588;2023-11-19T05:36:39;12.68;;;6.20;;
68976;SDS011;56029;52.568;13.588;2023-11-19T05:39:04;14.27;;;7.00;;
68976;SDS011;56029;52.568;13.588;2023-11-19T05:41:30;13.23;;;6.60;;
68976;SDS011;56029;52.568;13.588;2023-11-19T05:43:55;14.60;;;6.77;;
68976;SDS011;56029;52.568;13.588;2023-11-19T05:46:21;12.93;;;6.50;;
68976;SDS011;56029;52.568;13.588;2023-11-19T05:48:46;12.63;;;6.13;;
68976;SDS011;56029;52.568;13.588;2023-11-19T05:51:12;15.20;;;6.57;;
68976;SDS011;56029;52.568;13.588;2023-11-19T05:53:37;14.43;;;6.60;;
68976;SDS011;56029;52.568;13.588;2023-11-19T05:56:03;12.97;;;5.80;;
68976;SDS011;56029;52.568;13.588;2023-11-19T05:58:28;14.73;;;6.27;;
68976;SDS011;56029;52.568;13.588;2023-11-19T06:00:54;11.02;;;5.75;;
68976;SDS011;56029;52.568;13.588;2023-11-19T06:03:20;12.80;;;6.55;;
68976;SDS011;56029;52.568;13.588;2023-11-19T06:05:47;12.27;;;5.97;;
68976;SDS011;56029;52.568;13.588;2023-11-19T06:08:13;11.93;;;6.15;;
68976;SDS011;56029;52.568;13.588;2023-11-19T06:10:40;12.07;;;6.00;;
68976;SDS011;56029;52.568;13.588;2023-11-19T06:13:05;13.13;;;6.55;;
68976;SDS011;56029;52.568;13.588;2023-11-19T06:15:32;11.73;;;5.50;;
68976;SDS011;56029;52.568;13.588;2023-11-19T06:17:58;11.77;;;5.55;;
68976;SDS011;56029;52.568;13.588;2023-11-19T06:20:24;10.98;;;5.32;;
68976;SDS011;56029;52.568;13.588;2023-11-19T06:22:49;10.50;;;5.10;;
68976;SDS011;56029;52.568;13.588;2023-11-19T06:25:15;10.80;;;5.40;;
68976;SDS011;56029;52.568;13.588;2023-11-19T06:27:41;11.50;;;5.40;;
68976;SDS011;56029;52.568;13.588;2023-11-19T06:30:07;11.20;;;5.30;;
68976;SDS011;56029;52.568;13.588;2023-11-19T06:32:33;11.63;;;5.35;;
68976;SDS011;56029;52.568;13.588;2023-11-19T06:34:59;11.93;;;5.00;;
68976;SDS011;56029;52.568;13.588;2023-11-19T06:37:24;10.87;;;5.13;;
68976;SDS011;56029;52.568;13.588;2023-11-19T06:39:50;11.67;;;5.70;;
68976;SDS011;56029;52.568;13.588;2023-11-19T06:42:15;10.27;;;4.95;;
68976;SDS011;56029;52.568;13.588;2023-11-19T06:44:41;9.83;;;4.93;;
68976;SDS011;56029;52.568;13.588;2023-11-19T06:47:07;11.97;;;4.70;;
68976;SDS011;56029;52.568;13.588;2023-11-19T06:49:32;9.68;;;5.00;;
68976;SDS011;56029;52.568;13.588;2023-11-19T06:51:58;10.10;;;4.93;;
68976;SDS011;56029;52.568;13.588;2023-11-19T06:54:23;10.18;;;4.75;;
68976;SDS011;56029;52.568;13.588;2023-11-19T06:56:49;9.13;;;4.53;;
68976;SDS011;56029;52.568;13.588;2023-11-19T06:59:14;9.50;;;4.63;;
68976;SDS011;56029;52.568;13.588;2023-11-19T07:01:40;10.10;;;4.80;;
68976;SDS011;56029;52.568;13.588;2023-11-19T07:04:06;10.38;;;4.82;;
68976;SDS011;56029;52.568;13.588;2023-11-19T07:06:31;10.50;;;4.87;;
68976;SDS011;56029;52.568;13.588;2023-11-19T07:08:57;9.77;;;4.97;;
68976;SDS011;56029;52.568;13.588;2023-11-19T07:11:22;9.77;;;4.90;;
68976;SDS011;56029;52.568;13.588;2023-11-19T07:13:48;9.90;;;4.67;;
68976;SDS011;56029;52.568;13.588;2023-11-19T07:16:14;9.48;;;4.82;;
68976;SDS011;56029;52.568;13.588;2023-11-19T07:18:40;9.93;;;4.10;;
68976;SDS011;56029;52.568;13.588;2023-11-19T07:21:05;8.88;;;4.38;;
68976;SDS011;56029;52.568;13.588;2023-11-19T07:23:31;8.73;;;4.27;;
68976;SDS011;56029;52.568;13.588;2023-11-19T07:25:56;8.53;;;4.17;;
68976;SDS011;56029;52.568;13.588;2023-11-19T07:28:22;9.33;;;4.70;;
68976;SDS011;56029;52.568;13.588;2023-11-19T07:30:47;8.90;;;4.43;;
68976;SDS011;56029;52.568;13.588;2023-11-19T07:33:13;9.60;;;4.40;;
68976;SDS011;56029;52.568;13.588;2023-11-19T07:35:38;9.70;;;4.47;;
68976;SDS011;56029;52.568;13.588;2023-11-19T07:38:04;8.33;;;4.00;;
68976;SDS011;56029;52.568;13.588;2023-11-19T07:40:30;9.13;;;4.00;;
68976;SDS011;56029;52.568;13.588;2023-11-19T07:42:55;7.53;;;3.90;;
68976;SDS011;56029;52.568;13.588;2023-11-19T07:45:21;8.63;;;4.00;;
68976;SDS011;56029;52.568;13.588;2023-11-19T07:47:46;11.73;;;4.22;;
68976;SDS011;56029;52.568;13.588;2023-11-19T07:50:12;9.50;;;4.30;;
68976;SDS011;56029;52.568;13.588;2023-11-19T07:52:37;7.80;;;3.77;;
68976;SDS011;56029;52.568;13.588;2023-11-19T07:55:03;8.18;;;3.88;;
68976;SDS011;56029;52.568;13.588;2023-11-19T07:57:29;9.30;;;4.37;;
68976;SDS011;56029;52.568;13.588;2023-11-19T07:59:54;9.48;;;4.38;;
68976;SDS011;56029;52.568;13.588;2023-11-19T08:02:20;8.93;;;4.10;;
68976;SDS011;56029;52.568;13.588;2023-11-19T08:04:45;7.73;;;3.87;;
68976;SDS011;56029;52.568;13.588;2023-11-19T08:07:11;8.52;;;4.07;;
68976;SDS011;56029;52.568;13.588;2023-11-19T08:09:36;8.10;;;3.97;;
68976;SDS011;56029;52.568;13.588;2023-11-19T08:12:02;8.63;;;4.10;;
68976;SDS011;56029;52.568;13.588;2023-11-19T08:14:28;8.60;;;4.10;;
68976;SDS011;56029;52.568;13.588;2023-11-19T08:16:54;9.10;;;4.20;;
68976;SDS011;56029;52.568;13.588;2023-11-19T08:19:19;8.20;;;3.87;;
68976;SDS011;56029;52.568;13.588;2023-11-19T08:21:45;8.23;;;3.97;;
68976;SDS011;56029;52.568;13.588;2023-11-19T08:24:10;8.55;;;3.90;;
68976;SDS011;56029;52.568;13.588;2023-11-19T08:26:36;8.77;;;4.27;;
68976;SDS011;56029;52.568;13.588;2023-11-19T08:29:01;9.87;;;4.47;;
68976;SDS011;56029;52.568;13.588;2023-11-19T08:31:27;9.48;;;4.75;;
68976;SDS011;56029;52.568;13.588;2023-11-19T08:33:52;9.30;;;4.50;;
68976;SDS011;56029;52.568;13.588;2023-11-19T08:36:18;9.40;;;4.80;;
68976;SDS011;56029;52.568;13.588;2023-11-19T08:38:44;9.50;;;4.60;;
68976;SDS011;56029;52.568;13.588;2023-11-19T08:41:09;10.67;;;4.57;;
68976;SDS011;56029;52.568;13.588;2023-11-19T08:43:35;9.27;;;4.67;;
68976;SDS011;56029;52.568;13.588;2023-11-19T08:46:00;10.82;;;5.32;;
68976;SDS011;56029;52.568;13.588;2023-11-19T08:48:26;10.43;;;5.67;;
68976;SDS011;56029;52.568;13.588;2023-11-19T08:50:51;9.83;;;5.27;;
68976;SDS011;56029;52.568;13.588;2023-11-19T08:53:17;12.80;;;6.53;;
68976;SDS011;56029;52.568;13.588;2023-11-19T08:55:42;11.47;;;6.13;;
68976;SDS011;56029;52.568;13.588;2023-11-19T08:58:08;10.30;;;5.33;;
68976;SDS011;56029;52.568;13.588;2023-11-19T09:00:33;11.48;;;5.90;;
68976;SDS011;56029;52.568;13.588;2023-11-19T09:02:59;11.03;;;5.43;;
68976;SDS011;56029;52.568;13.588;2023-11-19T09:05:24;11.53;;;5.67;;
68976;SDS011;56029;52.568;13.588;2023-11-19T09:07:50;10.97;;;5.57;;
68976;SDS011;56029;52.568;13.588;2023-11-19T09:10:15;11.23;;;5.57;;
68976;SDS011;56029;52.568;13.588;2023-11-19T09:12:41;11.23;;;6.20;;
68976;SDS011;56029;52.568;13.588;2023-11-19T09:15:07;11.27;;;5.85;;
68976;SDS011;56029;52.568;13.588;2023-11-19T09:17:32;9.97;;;5.40;;
68976;SDS011;56029;52.568;13.588;2023-11-19T09:19:58;11.20;;;5.80;;
68976;SDS011;56029;52.568;13.588;2023-11-19T09:22:23;11.40;;;5.30;;
68976;SDS011;56029;52.568;13.588;2023-11-19T09:24:49;12.07;;;6.33;;
68976;SDS011;56029;52.568;13.588;2023-11-19T09:27:14;12.80;;;7.10;;
68976;SDS011;56029;52.568;13.588;2023-11-19T09:29:40;12.63;;;6.63;;
68976;SDS011;56029;52.568;13.588;2023-11-19T09:32:06;12.90;;;6.63;;
68976;SDS011;56029;52.568;13.588;2023-11-19T09:34:31;12.05;;;6.30;;
68976;SDS011;56029;52.568;13.588;2023-11-19T09:36:57;10.90;;;6.03;;
68976;SDS011;56029;52.568;13.588;2023-11-19T09:39:22;13.40;;;6.55;;
68976;SDS011;56029;52.568;13.588;2023-11-19T09:41:48;10.63;;;6.07;;
68976;SDS011;56029;52.568;13.588;2023-11-19T09:44:13;12.27;;;6.40;;
68976;SDS011;56029;52.568;13.588;2023-11-19T09:46:40;11.40;;;6.20;;
68976;SDS011;56029;52.568;13.588;2023-11-19T09:49:07;12.03;;;6.13;;
68976;SDS011;56029;52.568;13.588;2023-11-19T09:51:35;11.43;;;5.85;;
68976;SDS011;56029;52.568;13.588;2023-11-19T09:54:03;11.25;;;5.45;;
68976;SDS011;56029;52.568;13.588;2023-11-19T09:56:29;10.50;;;5.50;;
68976;SDS011;56029;52.568;13.588;2023-11-19T09:58:55;11.95;;;5.60;;
68976;SDS011;56029;52.568;13.588;2023-11-19T10:01:20;11.73;;;5.97;;
68976;SDS011;56029;52.568;13.588;2023-11-19T10:03:47;9.63;;;5.03;;
68976;SDS011;56029;52.568;13.588;2023-11-19T10:06:15;11.98;;;5.40;;
68976;SDS011;56029;52.568;13.588;2023-11-19T10:08:41;10.57;;;5.00;;
68976;SDS011;56029;52.568;13.588;2023-11-19T10:11:07;10.35;;;5.60;;
68976;SDS011;56029;52.568;13.588;2023-11-19T10:13:34;12.63;;;5.40;;
68976;SDS011;56029;52.568;13.588;2023-11-19T10:16:03;10.52;;;5.05;;
68976;SDS011;56029;52.568;13.588;2023-11-19T10:18:29;11.18;;;4.85;;
68976;SDS011;56029;52.568;13.588;2023-11-19T10:20:55;9.80;;;4.50;;
68976;SDS011;56029;52.568;13.588;2023-11-19T10:23:21;10.20;;;4.50;;
68976;SDS011;56029;52.568;13.588;2023-11-19T10:25:46;9.20;;;4.72;;
68976;SDS011;56029;52.568;13.588;2023-11-19T10:28:12;9.07;;;4.60;;
68976;SDS011;56029;52.568;13.588;2023-11-19T10:30:40;11.07;;;4.55;;
68976;SDS011;56029;52.568;13.588;2023-11-19T10:33:07;9.68;;;4.10;;
68976;SDS011;56029;52.568;13.588;2023-11-19T10:35:34;8.07;;;3.90;;
68976;SDS011;56029;52.568;13.588;2023-11-19T10:38:01;9.57;;;4.00;;
68976;SDS011;56029;52.568;13.588;2023-11-19T10:40:39;8.80;;;4.00;;
68976;SDS011;56029;52.568;13.588;2023-11-19T10:43:04;10.10;;;4.20;;
68976;SDS011;56029;52.568;13.588;2023-11-19T10:45:30;8.10;;;3.80;;
68976;SDS011;56029;52.568;13.588;2023-11-19T10:47:55;9.70;;;3.80;;
68976;SDS011;56029;52.568;13.588;2023-11-19T10:50:22;9.13;;;3.60;;
68976;SDS011;56029;52.568;13.588;2023-11-19T10:52:47;9.00;;;3.70;;
68976;SDS011;56029;52.568;13.588;2023-11-19T10:55:13;7.50;;;3.20;;
68976;SDS011;56029;52.568;13.588;2023-11-19T10:57:43;7.72;;;3.30;;
68976;SDS011;56029;52.568;13.588;2023-11-19T11:00:10;8.05;;;3.05;;
68976;SDS011;56029;52.568;13.588;2023-11-19T11:02:42;7.95;;;3.20;;
68976;SDS011;56029;52.568;13.588;2023-11-19T11:05:14;9.32;;;3.60;;
68976;SDS011;56029;52.568;13.588;2023-11-19T11:07:40;8.73;;;3.30;;
68976;SDS011;56029;52.568;13.588;2023-11-19T11:10:06;9.88;;;3.45;;
68976;SDS011;56029;52.568;13.588;2023-11-19T11:12:34;8.57;;;3.63;;
68976;SDS011;56029;52.568;13.588;2023-11-19T11:15:02;9.35;;;3.30;;
68976;SDS011;56029;52.568;13.588;2023-11-19T11:17:31;7.57;;;3.00;;
68976;SDS011;56029;52.568;13.588;2023-11-19T11:19:58;8.90;;;3.27;;
68976;SDS011;56029;52.568;13.588;2023-11-19T11:22:24;8.15;;;3.45;;
68976;SDS011;56029;52.568;13.588;2023-11-19T11:28:02;10.98;;;3.30;;
68976;SDS011;56029;52.568;13.588;2023-11-19T11:33:24;9.80;;;2.97;;
68976;SDS011;56029;52.568;13.588;2023-11-19T11:36:03;8.88;;;3.00;;
68976;SDS011;56029;52.568;13.588;2023-11-19T11:38:38;8.15;;;2.83;;
68976;SDS011;56029;52.568;13.588;2023-11-19T11:41:18;10.77;;;3.05;;
68976;SDS011;56029;52.568;13.588;2023-11-19T11:43:48;8.53;;;2.60;;
68976;SDS011;56029;52.568;13.588;2023-11-19T11:46:53;9.73;;;2.92;;
68976;SDS011;56029;52.568;13.588;2023-11-19T11:49:06;8.80;;;2.90;;
68976;SDS011;56029;52.568;13.588;2023-11-19T11:54:10;9.32;;;2.95;;
68976;SDS011;56029;52.568;13.588;2023-11-19T11:56:37;12.97;;;3.57;;
68976;SDS011;56029;52.568;13.588;2023-11-19T11:59:07;8.50;;;2.83;;
68976;SDS011;56029;52.568;13.588;2023-11-19T12:01:32;9.13;;;3.15;;
68976;SDS011;56029;52.568;13.588;2023-11-19T12:03:58;11.27;;;3.43;;
68976;SDS011;56029;52.568;13.588;2023-11-19T12:06:24;9.20;;;3.10;;
68976;SDS011;56029;52.568;13.588;2023-11-19T12:08:52;12.23;;;3.10;;
68976;SDS011;56029;52.568;13.588;2023-11-19T12:11:17;11.23;;;2.80;;
68976;SDS011;56029;52.568;13.588;2023-11-19T12:13:47;11.53;;;3.20;;
68976;SDS011;56029;52.568;13.588;2023-11-19T12:16:18;9.27;;;3.10;;
68976;SDS011;56029;52.568;13.588;2023-11-19T12:18:43;11.30;;;3.40;;
68976;SDS011;56029;52.568;13.588;2023-11-19T12:21:09;10.77;;;3.23;;
68976;SDS011;56029;52.568;13.588;2023-11-19T12:23:35;13.50;;;3.97;;
68976;SDS011;56029;52.568;13.588;2023-11-19T12:26:00;13.90;;;3.57;;
68976;SDS011;56029;52.568;13.588;2023-11-19T12:28:26;15.45;;;3.30;;
68976;SDS011;56029;52.568;13.588;2023-11-19T12:30:52;13.27;;;3.93;;
68976;SDS011;56029;52.568;13.588;2023-11-19T12:33:18;8.48;;;2.80;;
68976;SDS011;56029;52.568;13.588;2023-11-19T12:35:45;12.40;;;3.45;;
68976;SDS011;56029;52.568;13.588;2023-11-19T12:38:21;9.87;;;3.10;;
68976;SDS011;56029;52.568;13.588;2023-11-19T12:43:48;11.95;;;2.90;;
68976;SDS011;56029;52.568;13.588;2023-11-19T12:46:17;11.77;;;3.20;;
68976;SDS011;56029;52.568;13.588;2023-11-19T12:48:46;14.23;;;3.50;;
68976;SDS011;56029;52.568;13.588;2023-11-19T12:51:12;12.40;;;3.35;;
68976;SDS011;56029;52.568;13.588;2023-11-19T12:53:51;17.87;;;4.33;;
68976;SDS011;56029;52.568;13.588;2023-11-19T12:56:17;12.60;;;3.20;;
68976;SDS011;56029;52.568;13.588;2023-11-19T12:58:43;12.13;;;3.10;;
68976;SDS011;56029;52.568;13.588;2023-11-19T13:01:09;13.98;;;3.50;;
68976;SDS011;56029;52.568;13.588;2023-11-19T13:03:38;14.63;;;3.60;;
68976;SDS011;56029;52.568;13.588;2023-11-19T13:06:13;14.03;;;3.60;;
68976;SDS011;56029;52.568;13.588;2023-11-19T13:08:40;14.90;;;3.85;;
68976;SDS011;56029;52.568;13.588;2023-11-19T13:11:12;15.38;;;3.70;;
68976;SDS011;56029;52.568;13.588;2023-11-19T13:14:00;12.60;;;3.65;;
68976;SDS011;56029;52.568;13.588;2023-11-19T13:16:27;17.52;;;3.70;;
68976;SDS011;56029;52.568;13.588;2023-11-19T13:18:53;11.27;;;3.47;;
68976;SDS011;56029;52.568;13.588;2023-11-19T13:21:19;13.23;;;3.42;;
68976;SDS011;56029;52.568;13.588;2023-11-19T13:23:44;14.73;;;3.77;;
68976;SDS011;56029;52.568;13.588;2023-11-19T13:26:10;11.20;;;3.57;;
68976;SDS011;56029;52.568;13.588;2023-11-19T13:28:37;11.52;;;3.03;;
68976;SDS011;56029;52.568;13.588;2023-11-19T13:31:03;14.93;;;3.20;;
68976;SDS011;56029;52.568;13.588;2023-11-19T13:33:29;13.20;;;3.45;;
68976;SDS011;56029;52.568;13.588;2023-11-19T13:35:54;13.63;;;3.13;;
68976;SDS011;56029;52.568;13.588;2023-11-19T13:38:20;11.80;;;3.55;;
68976;SDS011;56029;52.568;13.588;2023-11-19T13:40:46;13.77;;;3.37;;
68976;SDS011;56029;52.568;13.588;2023-11-19T13:43:12;11.30;;;2.65;;
68976;SDS011;56029;52.568;13.588;2023-11-19T13:45:37;8.40;;;2.67;;
68976;SDS011;56029;52.568;13.588;2023-11-19T13:48:03;14.73;;;3.05;;
68976;SDS011;56029;52.568;13.588;2023-11-19T13:50:28;13.43;;;2.70;;
68976;SDS011;56029;52.568;13.588;2023-11-19T13:52:54;14.63;;;3.20;;
68976;SDS011;56029;52.568;13.588;2023-11-19T13:55:19;14.57;;;3.28;;
68976;SDS011;56029;52.568;13.588;2023-11-19T13:57:45;11.27;;;3.13;;
68976;SDS011;56029;52.568;13.588;2023-11-19T14:00:11;15.25;;;3.67;;
68976;SDS011;56029;52.568;13.588;2023-11-19T14:02:38;15.82;;;3.30;;
68976;SDS011;56029;52.568;13.588;2023-11-19T14:05:07;12.03;;;3.50;;
68976;SDS011;56029;52.568;13.588;2023-11-19T14:07:33;16.17;;;3.70;;
68976;SDS011;56029;52.568;13.588;2023-11-19T14:09:58;18.33;;;4.13;;
68976;SDS011;56029;52.568;13.588;2023-11-19T14:12:24;15.00;;;3.80;;
68976;SDS011;56029;52.568;13.588;2023-11-19T14:14:49;15.33;;;3.43;;
68976;SDS011;56029;52.568;13.588;2023-11-19T14:17:15;14.27;;;3.00;;
68976;SDS011;56029;52.568;13.588;2023-11-19T14:19:41;14.07;;;3.40;;
68976;SDS011;56029;52.568;13.588;2023-11-19T14:22:07;13.70;;;3.40;;
68976;SDS011;56029;52.568;13.588;2023-11-19T14:24:32;15.33;;;3.60;;
68976;SDS011;56029;52.568;13.588;2023-11-19T14:26:58;12.63;;;2.93;;
68976;SDS011;56029;52.568;13.588;2023-11-19T14:29:24;13.57;;;4.03;;
68976;SDS011;56029;52.568;13.588;2023-11-19T14:31:49;13.70;;;3.20;;
68976;SDS011;56029;52.568;13.588;2023-11-19T14:34:15;16.30;;;3.60;;